createdAt,value
2023-02-15T11:59:40.226Z,30.27
2023-02-15T12:02:18.774Z,28.83
2023-02-15T12:04:54.713Z,30.87
2023-02-15T12:07:27.550Z,31.83
2023-02-15T12:10:02.558Z,27.87
2023-02-15T12:12:32.853Z,24.77
2023-02-15T12:15:03.790Z,29.60
2023-02-15T12:17:34.572Z,30.17
2023-02-15T12:20:04.369Z,32.00
2023-02-15T12:22:34.556Z,32.77
2023-02-15T12:25:04.524Z,31.70
2023-02-15T12:27:34.601Z,32.97
2023-02-15T12:30:08.449Z,32.63
2023-02-15T12:32:48.246Z,29.30
2023-02-15T12:35:20.414Z,32.43
2023-02-15T12:37:56.195Z,36.53
2023-02-15T12:40:26.870Z,25.13
2023-02-15T12:42:54.930Z,29.07
2023-02-15T12:45:28.746Z,27.75
2023-02-15T12:48:12.021Z,26.30
2023-02-15T12:50:41.152Z,25.60
2023-02-15T12:53:15.300Z,30.57
2023-02-15T12:55:52.980Z,24.17
2023-02-15T12:58:26.106Z,25.93
2023-02-15T13:01:14.877Z,26.20
2023-02-15T13:03:58.788Z,26.73
2023-02-15T13:06:27.855Z,27.63
2023-02-15T13:08:57.535Z,21.53
2023-02-15T13:11:35.113Z,27.43
2023-02-15T13:14:06.282Z,26.03
2023-02-15T13:16:39.313Z,24.83
2023-02-15T13:19:13.581Z,24.13
2023-02-15T13:21:45.111Z,23.33
2023-02-15T13:24:22.743Z,26.53
2023-02-15T13:26:51.071Z,22.80
2023-02-15T13:29:24.560Z,23.70
2023-02-15T13:31:55.492Z,25.30
2023-02-15T13:34:28.265Z,23.35
2023-02-15T13:37:01.410Z,22.33
2023-02-15T13:39:41.791Z,26.40
2023-02-15T13:42:23.130Z,25.55
2023-02-15T13:45:09.163Z,24.70
2023-02-15T13:47:50.512Z,23.10
2023-02-15T13:50:33.212Z,23.53
2023-02-15T13:53:21.777Z,28.93
2023-02-15T13:55:53.886Z,25.50
2023-02-15T13:58:47.393Z,22.40
2023-02-15T14:01:25.938Z,22.73
2023-02-15T14:04:32.472Z,22.07
2023-02-15T14:07:33.710Z,23.20
2023-02-15T14:10:26.380Z,21.77
2023-02-15T14:13:36.141Z,23.17
2023-02-15T14:16:11.073Z,23.42
2023-02-15T14:18:46.185Z,26.10
2023-02-15T14:21:20.670Z,22.10
2023-02-15T14:24:10.086Z,25.63
2023-02-15T14:26:47.418Z,19.50
2023-02-15T14:29:25.352Z,27.48
2023-02-15T14:31:59.527Z,27.47
2023-02-15T14:34:32.678Z,21.80
2023-02-15T14:37:03.615Z,21.33
2023-02-15T14:39:56.450Z,19.20
2023-02-15T14:42:33.526Z,24.05
2023-02-15T14:45:08.815Z,23.77
2023-02-15T14:47:42.249Z,22.30
2023-02-15T14:50:43.918Z,23.20
2023-02-15T14:53:40.762Z,21.70
2023-02-15T14:56:21.509Z,26.17
2023-02-15T14:59:18.056Z,22.83
2023-02-15T15:01:57.454Z,23.13
2023-02-15T15:04:32.285Z,22.77
2023-02-15T15:07:04.943Z,27.97
2023-02-15T15:09:37.012Z,22.43
2023-02-15T15:12:39.516Z,21.57
2023-02-15T15:15:09.045Z,26.60
2023-02-15T15:17:59.294Z,23.83
2023-02-15T15:20:46.067Z,23.00
2023-02-15T15:23:41.334Z,27.70
2023-02-15T15:26:31.606Z,26.60
2023-02-15T15:29:02.298Z,27.20
2023-02-15T15:31:49.296Z,28.13
2023-02-15T15:34:48.124Z,25.83
2023-02-15T15:37:53.868Z,23.20
2023-02-15T15:41:07.867Z,22.53
2023-02-15T15:44:01.443Z,23.17
2023-02-15T15:46:58.279Z,23.37
2023-02-15T15:49:31.789Z,20.20
2023-02-15T15:52:03.530Z,24.67
2023-02-15T15:54:32.680Z,27.30
2023-02-15T15:57:04.335Z,28.43
2023-02-15T15:59:35.977Z,31.03
2023-02-15T16:02:07.421Z,27.57
2023-02-15T16:04:37.019Z,33.13
2023-02-15T16:07:22.834Z,28.92
2023-02-15T16:09:57.023Z,27.27
2023-02-15T16:12:25.449Z,22.77
2023-02-15T16:14:56.237Z,22.70
2023-02-15T16:17:27.568Z,23.83
2023-02-15T16:20:07.978Z,27.63
2023-02-15T16:22:36.257Z,29.00
2023-02-15T16:25:22.334Z,25.43
2023-02-15T16:27:50.836Z,27.63
2023-02-15T16:30:26.570Z,22.60
2023-02-15T16:33:06.488Z,31.17
2023-02-15T16:35:35.931Z,30.63
2023-02-15T16:38:04.770Z,29.58
2023-02-15T16:40:48.870Z,29.37
2023-02-15T16:43:21.511Z,32.43
2023-02-15T16:45:51.423Z,32.13
2023-02-15T16:48:23.553Z,32.03
2023-02-15T16:50:54.932Z,34.93
2023-02-15T16:53:27.308Z,38.70
2023-02-15T16:55:57.450Z,35.53
2023-02-15T16:58:32.040Z,42.70
2023-02-15T17:01:04.139Z,39.43
2023-02-15T17:03:32.743Z,33.70
2023-02-15T17:06:02.653Z,42.57
2023-02-15T17:08:33.069Z,47.03
2023-02-15T17:11:14.475Z,44.40
2023-02-15T17:14:23.522Z,35.70
2023-02-15T17:16:57.325Z,31.50
2023-02-15T17:19:28.316Z,34.43
2023-02-15T17:21:58.735Z,33.75
2023-02-15T17:24:39.299Z,32.37
2023-02-15T17:27:14.112Z,45.73
2023-02-15T17:29:45.741Z,35.42
2023-02-15T17:32:21.506Z,36.77
2023-02-15T17:34:58.705Z,32.00
2023-02-15T17:37:30.758Z,44.10
2023-02-15T17:40:00.654Z,44.17
2023-02-15T17:42:28.871Z,38.17
2023-02-15T17:44:56.962Z,36.57
2023-02-15T17:47:30.170Z,44.57
2023-02-15T17:49:58.149Z,37.20
2023-02-15T17:52:28.925Z,31.47
2023-02-15T17:55:14.547Z,39.33
2023-02-15T17:57:42.987Z,41.53
2023-02-15T18:00:33.661Z,40.40
2023-02-15T18:03:20.360Z,43.47
2023-02-15T18:06:06.033Z,46.20
2023-02-15T18:08:51.806Z,41.30
2023-02-15T18:11:40.788Z,46.87
2023-02-15T18:14:10.798Z,49.63
2023-02-15T18:16:42.558Z,42.70
2023-02-15T18:19:17.508Z,41.20
2023-02-15T18:21:46.358Z,51.10
2023-02-15T18:24:18.192Z,40.23
2023-02-15T18:26:46.516Z,53.73
2023-02-15T18:29:14.521Z,49.78
2023-02-15T18:31:44.715Z,50.17
2023-02-15T18:34:23.677Z,42.50
2023-02-15T18:36:51.740Z,51.00
2023-02-15T18:39:28.050Z,51.47
2023-02-15T18:41:56.172Z,51.50
2023-02-15T18:44:24.295Z,45.63
2023-02-15T18:46:52.188Z,50.10
2023-02-15T18:49:21.584Z,49.80
2023-02-15T18:51:49.507Z,52.50
2023-02-15T18:54:20.397Z,51.40
2023-02-15T18:56:54.380Z,50.57
2023-02-15T18:59:23.593Z,59.57
2023-02-15T19:01:51.789Z,47.80
2023-02-15T19:04:22.268Z,46.03
2023-02-15T19:06:51.646Z,47.37
2023-02-15T19:09:22.093Z,51.20
2023-02-15T19:11:51.979Z,46.03
2023-02-15T19:14:29.361Z,48.07
2023-02-15T19:16:58.143Z,40.97
2023-02-15T19:19:28.181Z,40.37
2023-02-15T19:21:56.651Z,40.23
2023-02-15T19:24:26.567Z,34.73
2023-02-15T19:26:54.538Z,44.03
2023-02-15T19:29:27.637Z,36.97
2023-02-15T19:31:55.588Z,41.43
2023-02-15T19:34:23.899Z,34.47
2023-02-15T19:36:56.636Z,38.70
2023-02-15T19:39:27.910Z,39.00
2023-02-15T19:41:56.226Z,42.20
2023-02-15T19:44:24.169Z,42.37
2023-02-15T19:46:52.400Z,41.10
2023-02-15T19:49:20.467Z,43.53
2023-02-15T19:51:49.109Z,35.23
2023-02-15T19:54:31.767Z,38.80
2023-02-15T19:56:59.698Z,38.73
2023-02-15T19:59:29.847Z,42.67
2023-02-15T20:01:58.547Z,35.60
2023-02-15T20:04:26.947Z,45.42
2023-02-15T20:06:58.391Z,40.67
2023-02-15T20:09:29.751Z,37.83
2023-02-15T20:11:59.425Z,43.00
2023-02-15T20:14:27.405Z,45.72
2023-02-15T20:16:55.414Z,39.20
2023-02-15T20:19:23.306Z,45.93
2023-02-15T20:21:54.779Z,44.42
2023-02-15T20:24:24.609Z,52.20
2023-02-15T20:26:52.519Z,44.23
2023-02-15T20:29:21.970Z,36.10
2023-02-15T20:31:50.098Z,45.67
2023-02-15T20:34:18.160Z,41.00
2023-02-15T20:36:46.299Z,45.07
2023-02-15T20:39:16.390Z,49.57
2023-02-15T20:41:47.971Z,44.40
2023-02-15T20:44:23.433Z,43.90
2023-02-15T20:46:52.929Z,39.70
2023-02-15T20:49:21.123Z,44.37
2023-02-15T20:51:49.566Z,42.43
2023-02-15T20:54:19.391Z,43.83
2023-02-15T20:56:48.246Z,47.80
2023-02-15T20:59:24.189Z,46.13
2023-02-15T21:01:55.630Z,45.77
2023-02-15T21:04:26.908Z,45.53
2023-02-15T21:06:54.836Z,42.87
2023-02-15T21:09:22.723Z,49.50
2023-02-15T21:11:53.130Z,45.40
2023-02-15T21:14:24.431Z,43.77
2023-02-15T21:16:52.625Z,50.30
2023-02-15T21:19:22.970Z,55.03
2023-02-15T21:21:53.707Z,55.83
2023-02-15T21:24:24.192Z,62.60
2023-02-15T21:26:52.465Z,47.13
2023-02-15T21:29:24.618Z,53.93
2023-02-15T21:31:53.087Z,48.13
2023-02-15T21:34:21.656Z,54.67
2023-02-15T21:36:51.296Z,56.97
2023-02-15T21:39:23.223Z,51.03
2023-02-15T21:42:10.642Z,51.17
2023-02-15T21:44:57.683Z,60.07
2023-02-15T21:47:44.752Z,51.63
2023-02-15T21:50:32.282Z,49.63
2023-02-15T21:53:00.755Z,51.13
2023-02-15T21:55:29.254Z,51.80
2023-02-15T21:57:57.505Z,60.47
2023-02-15T22:00:27.904Z,56.83
2023-02-15T22:02:58.651Z,57.27
2023-02-15T22:05:30.146Z,49.57
2023-02-15T22:07:58.778Z,49.33
2023-02-15T22:10:29.717Z,60.53
2023-02-15T22:12:58.917Z,45.47
2023-02-15T22:15:31.312Z,51.47
2023-02-15T22:17:59.459Z,57.37
2023-02-15T22:20:27.462Z,41.97
2023-02-15T22:22:56.078Z,51.13
2023-02-15T22:25:26.672Z,35.30
2023-02-15T22:27:55.926Z,37.87
2023-02-15T22:30:27.280Z,40.90
2023-02-15T22:32:58.323Z,40.23
2023-02-15T22:35:28.500Z,44.83
2023-02-15T22:37:56.778Z,40.93
2023-02-15T22:40:30.179Z,34.07
2023-02-15T22:43:00.686Z,43.87
2023-02-15T22:45:29.463Z,42.33
2023-02-15T22:48:01.233Z,40.80
2023-02-15T22:50:31.011Z,37.57
2023-02-15T22:53:01.051Z,42.55
2023-02-15T22:55:32.188Z,35.87
2023-02-15T22:58:01.058Z,31.03
2023-02-15T23:00:32.350Z,37.15
2023-02-15T23:03:02.473Z,37.13
2023-02-15T23:05:32.434Z,36.00
2023-02-15T23:08:00.355Z,29.40
2023-02-15T23:10:30.051Z,31.77
2023-02-15T23:13:17.648Z,34.23
2023-02-15T23:15:48.839Z,31.90
2023-02-15T23:18:20.981Z,31.97
2023-02-15T23:20:52.535Z,36.10
2023-02-15T23:23:26.777Z,36.60
2023-02-15T23:25:55.055Z,32.53
2023-02-15T23:28:26.693Z,33.37
2023-02-15T23:30:55.094Z,31.10
2023-02-15T23:33:26.350Z,26.50
2023-02-15T23:35:54.681Z,28.33
2023-02-15T23:38:25.929Z,28.77
2023-02-15T23:41:16.253Z,29.13
2023-02-15T23:43:47.625Z,31.90
2023-02-15T23:46:24.273Z,29.70
2023-02-15T23:48:54.424Z,30.47
2023-02-15T23:51:24.164Z,31.00
2023-02-15T23:53:52.028Z,28.10
2023-02-15T23:56:20.213Z,28.35
2023-02-15T23:58:49.020Z,25.27
